createdAt,value
2017-12-31T00:02:07.612Z,86.00
2017-12-31T00:04:34.562Z,86.30
2017-12-31T00:07:00.820Z,86.30
2017-12-31T00:09:27.098Z,86.40
2017-12-31T00:11:53.318Z,86.40
2017-12-31T00:14:19.582Z,86.40
2017-12-31T00:16:45.824Z,86.80
2017-12-31T00:19:12.049Z,86.80
2017-12-31T00:21:41.629Z,87.70
2017-12-31T00:24:07.845Z,88.00
2017-12-31T00:26:34.106Z,87.80
2017-12-31T00:29:00.356Z,87.70
2017-12-31T00:31:26.610Z,88.30
2017-12-31T00:33:52.849Z,89.20
2017-12-31T00:36:19.063Z,90.40
2017-12-31T00:38:45.379Z,90.80
2017-12-31T00:41:16.985Z,91.90
2017-12-31T00:43:43.192Z,91.90
2017-12-31T00:46:09.498Z,92.10
2017-12-31T00:48:35.669Z,92.40
2017-12-31T00:51:01.868Z,92.40
2017-12-31T00:53:28.793Z,93.00
2017-12-31T00:55:55.784Z,93.20
2017-12-31T00:58:22.007Z,93.10
2017-12-31T01:00:52.684Z,93.10
2017-12-31T01:03:19.649Z,93.60
2017-12-31T01:05:46.592Z,93.40
2017-12-31T01:08:12.796Z,93.40
2017-12-31T01:10:39.008Z,93.70
2017-12-31T01:13:05.953Z,93.90
2017-12-31T01:18:05.033Z,93.80
2017-12-31T01:20:31.248Z,94.30
2017-12-31T01:22:57.472Z,94.30
2017-12-31T01:25:23.703Z,94.30
2017-12-31T01:27:49.916Z,94.50
2017-12-31T01:30:16.157Z,94.40
2017-12-31T01:32:44.164Z,94.50
2017-12-31T01:35:11.118Z,94.60
2017-12-31T01:37:38.169Z,94.30
2017-12-31T01:40:05.162Z,94.30
2017-12-31T01:42:31.510Z,94.30
2017-12-31T01:44:57.766Z,94.30
2017-12-31T01:47:23.964Z,94.30
2017-12-31T01:49:52.024Z,94.00
2017-12-31T01:52:18.277Z,93.80
2017-12-31T01:54:44.525Z,94.30
2017-12-31T01:57:10.804Z,94.50
2017-12-31T01:59:36.988Z,94.50
2017-12-31T02:02:03.285Z,94.70
2017-12-31T02:04:29.538Z,94.40
2017-12-31T02:06:55.776Z,94.80
2017-12-31T02:09:26.946Z,94.90
2017-12-31T02:11:53.192Z,95.00
2017-12-31T02:14:19.425Z,94.80
2017-12-31T02:16:45.670Z,94.70
2017-12-31T02:19:11.997Z,95.20
2017-12-31T02:21:38.263Z,95.20
2017-12-31T02:24:04.584Z,95.30
2017-12-31T02:26:30.852Z,95.50
2017-12-31T02:28:58.553Z,95.50
2017-12-31T02:31:27.734Z,95.90
2017-12-31T02:33:53.960Z,95.90
2017-12-31T02:36:20.214Z,95.80
2017-12-31T02:38:46.448Z,95.60
2017-12-31T02:41:12.686Z,95.80
2017-12-31T02:43:39.639Z,95.30
2017-12-31T02:46:10.571Z,95.30
2017-12-31T02:48:36.799Z,95.60
2017-12-31T02:51:03.004Z,95.40
2017-12-31T02:53:29.260Z,95.20
2017-12-31T02:55:55.564Z,95.10
2017-12-31T02:58:21.795Z,95.30
2017-12-31T03:00:48.022Z,95.00
2017-12-31T03:03:14.245Z,94.80
2017-12-31T03:05:45.728Z,95.30
2017-12-31T03:08:11.952Z,95.40
2017-12-31T03:10:38.138Z,95.60
2017-12-31T03:13:04.393Z,95.60
2017-12-31T03:15:30.605Z,95.20
2017-12-31T03:17:56.801Z,95.40
2017-12-31T03:20:23.030Z,95.00
2017-12-31T03:22:49.232Z,95.70
2017-12-31T03:25:20.762Z,96.20
2017-12-31T03:27:47.013Z,96.20
2017-12-31T03:30:13.202Z,96.10
2017-12-31T03:32:40.133Z,96.20
2017-12-31T03:35:06.381Z,96.20
2017-12-31T03:37:32.601Z,95.80
2017-12-31T03:39:59.637Z,95.70
2017-12-31T03:42:30.369Z,95.70
2017-12-31T03:44:56.585Z,95.70
2017-12-31T03:47:22.821Z,95.40
2017-12-31T03:49:49.069Z,95.70
2017-12-31T03:52:15.288Z,95.70
2017-12-31T03:54:41.573Z,96.00
2017-12-31T03:57:07.870Z,95.70
2017-12-31T03:59:34.140Z,95.80
2017-12-31T04:02:05.426Z,95.80
2017-12-31T04:04:31.665Z,96.00
2017-12-31T04:06:57.923Z,96.10
2017-12-31T04:09:24.165Z,96.60
2017-12-31T04:11:50.410Z,96.10
2017-12-31T04:14:16.612Z,96.10
2017-12-31T04:16:43.599Z,96.20
2017-12-31T04:19:14.973Z,96.10
2017-12-31T04:21:41.243Z,96.30
2017-12-31T04:24:07.467Z,96.60
2017-12-31T04:26:33.825Z,96.60
2017-12-31T04:29:00.062Z,96.90
2017-12-31T04:31:26.276Z,97.10
2017-12-31T04:33:52.537Z,97.10
2017-12-31T04:36:18.813Z,97.30
2017-12-31T04:38:49.402Z,97.30
2017-12-31T04:41:15.645Z,97.70
2017-12-31T04:43:41.873Z,98.00
2017-12-31T04:46:08.132Z,98.00
2017-12-31T04:48:34.372Z,98.30
2017-12-31T04:51:00.610Z,98.60
2017-12-31T04:53:26.915Z,98.70
2017-12-31T04:55:53.249Z,98.50
2017-12-31T04:58:21.564Z,98.70
2017-12-31T05:00:47.810Z,98.50
2017-12-31T05:03:14.062Z,98.70
2017-12-31T05:05:40.320Z,98.80
2017-12-31T05:08:06.549Z,98.60
2017-12-31T05:10:32.825Z,98.50
2017-12-31T05:12:59.100Z,98.60
2017-12-31T05:15:29.973Z,98.60
2017-12-31T05:17:56.197Z,98.60
2017-12-31T05:20:22.473Z,98.60
2017-12-31T05:22:49.461Z,98.60
2017-12-31T05:25:15.733Z,98.60
2017-12-31T05:27:42.001Z,98.60
2017-12-31T05:30:08.233Z,98.70
2017-12-31T05:32:34.489Z,98.70
2017-12-31T05:35:05.229Z,98.70
2017-12-31T05:37:31.468Z,98.70
2017-12-31T05:39:57.737Z,98.90
2017-12-31T05:42:23.976Z,98.70
2017-12-31T05:44:50.994Z,98.70
2017-12-31T05:47:17.971Z,98.50
2017-12-31T05:49:44.213Z,98.50
2017-12-31T05:52:11.220Z,98.80
2017-12-31T05:54:40.346Z,98.70
2017-12-31T05:57:06.586Z,98.80
2017-12-31T05:59:32.800Z,98.90
2017-12-31T06:01:59.063Z,98.80
2017-12-31T06:04:26.008Z,98.60
2017-12-31T06:06:52.257Z,98.60
2017-12-31T06:09:19.225Z,98.30
2017-12-31T06:11:46.201Z,98.30
2017-12-31T06:14:15.230Z,98.30
2017-12-31T06:16:41.477Z,98.30
2017-12-31T06:19:07.728Z,97.70
2017-12-31T06:21:34.006Z,97.80
2017-12-31T06:24:00.381Z,97.80
2017-12-31T06:26:26.680Z,97.50
2017-12-31T06:28:52.921Z,97.50
2017-12-31T06:31:19.170Z,97.30
2017-12-31T06:33:49.834Z,97.40
2017-12-31T06:36:16.057Z,97.60
2017-12-31T06:38:42.969Z,97.50
2017-12-31T06:41:09.200Z,97.50
2017-12-31T06:43:35.417Z,97.50
2017-12-31T06:46:01.681Z,97.40
2017-12-31T06:48:27.869Z,97.40
2017-12-31T06:50:55.570Z,97.10
2017-12-31T06:53:25.540Z,97.10
2017-12-31T06:55:51.736Z,96.40
2017-12-31T06:58:18.685Z,96.10
2017-12-31T07:00:45.069Z,96.10
2017-12-31T07:03:11.282Z,96.50
2017-12-31T07:05:37.480Z,95.90
2017-12-31T07:08:03.721Z,95.50
2017-12-31T07:10:35.478Z,95.10
2017-12-31T07:13:01.713Z,95.10
2017-12-31T07:15:27.908Z,94.90
2017-12-31T07:17:54.120Z,94.90
2017-12-31T07:20:20.319Z,94.60
2017-12-31T07:22:46.534Z,94.50
2017-12-31T07:25:12.823Z,93.80
2017-12-31T07:27:43.505Z,93.60
2017-12-31T07:30:09.706Z,93.10
2017-12-31T07:32:35.903Z,92.50
2017-12-31T07:35:02.130Z,92.50
2017-12-31T07:37:28.354Z,92.50
2017-12-31T07:39:54.611Z,92.10
2017-12-31T07:42:22.356Z,91.50
2017-12-31T07:44:54.790Z,91.50
2017-12-31T07:47:21.026Z,90.50
2017-12-31T07:49:47.265Z,90.50
2017-12-31T07:52:13.515Z,91.00
2017-12-31T07:54:39.782Z,90.00
2017-12-31T07:57:06.029Z,88.30
2017-12-31T07:59:32.292Z,88.20
2017-12-31T08:01:58.536Z,88.40
2017-12-31T08:04:28.040Z,87.30
2017-12-31T08:06:54.381Z,86.80
2017-12-31T08:09:20.650Z,87.70
2017-12-31T08:11:46.905Z,87.60
2017-12-31T08:14:13.158Z,86.60
2017-12-31T08:16:40.160Z,90.30
2017-12-31T08:19:06.321Z,90.30
2017-12-31T08:24:06.136Z,90.50
2017-12-31T08:26:33.128Z,90.20
2017-12-31T08:28:59.369Z,90.20
2017-12-31T08:31:25.653Z,90.50
2017-12-31T08:33:51.902Z,90.00
2017-12-31T08:36:18.132Z,90.00
2017-12-31T08:38:44.380Z,88.30
2017-12-31T08:41:13.401Z,88.50
2017-12-31T08:43:39.668Z,87.90
2017-12-31T08:46:06.177Z,88.30
2017-12-31T08:48:32.438Z,88.70
2017-12-31T08:50:59.462Z,88.10
2017-12-31T08:53:25.681Z,87.40
2017-12-31T08:55:51.908Z,87.30
2017-12-31T08:58:18.154Z,86.60
2017-12-31T09:00:48.086Z,86.60
2017-12-31T09:03:15.062Z,85.10
2017-12-31T09:05:41.489Z,85.10
2017-12-31T09:08:07.765Z,85.90
2017-12-31T09:10:34.033Z,85.20
2017-12-31T09:13:00.291Z,84.10
2017-12-31T09:15:26.549Z,83.60
2017-12-31T09:17:52.784Z,83.20
2017-12-31T09:20:22.528Z,83.40
2017-12-31T09:22:48.754Z,83.10
2017-12-31T09:25:15.121Z,83.60
2017-12-31T09:27:41.385Z,83.00
2017-12-31T09:30:08.373Z,82.80
2017-12-31T09:32:34.646Z,82.80
2017-12-31T09:35:00.880Z,82.30
2017-12-31T09:37:27.116Z,82.00
2017-12-31T09:39:53.341Z,82.20
2017-12-31T09:42:19.605Z,82.10
2017-12-31T09:44:45.906Z,81.20
2017-12-31T09:47:12.885Z,81.70
2017-12-31T09:49:39.860Z,81.40
2017-12-31T09:52:06.160Z,81.30
2017-12-31T09:54:32.404Z,81.30
2017-12-31T09:57:04.521Z,82.20
2017-12-31T09:59:30.757Z,81.10
2017-12-31T10:01:57.745Z,81.00
2017-12-31T10:04:24.716Z,81.20
2017-12-31T10:06:51.735Z,81.00
2017-12-31T10:09:18.000Z,81.00
2017-12-31T10:11:45.005Z,80.80
2017-12-31T10:14:16.191Z,80.80
2017-12-31T10:16:42.457Z,80.40
2017-12-31T10:19:08.698Z,80.70
2017-12-31T10:21:34.954Z,81.10
2017-12-31T10:24:01.194Z,80.90
2017-12-31T10:26:27.444Z,80.50
2017-12-31T10:28:53.684Z,80.70
2017-12-31T10:31:19.980Z,80.20
2017-12-31T10:33:51.522Z,80.50
2017-12-31T10:36:17.745Z,79.70
2017-12-31T10:38:43.955Z,80.80
2017-12-31T10:41:10.217Z,79.50
2017-12-31T10:43:36.396Z,79.40
2017-12-31T10:46:02.605Z,79.70
2017-12-31T10:48:28.869Z,79.90
2017-12-31T10:50:55.865Z,78.40
2017-12-31T10:53:28.545Z,78.40
2017-12-31T10:55:55.524Z,78.40
2017-12-31T10:58:21.767Z,78.40
2017-12-31T11:00:47.987Z,78.60
2017-12-31T11:03:14.332Z,78.00
2017-12-31T11:05:40.533Z,78.00
2017-12-31T11:08:06.753Z,78.80
2017-12-31T11:10:33.720Z,78.10
2017-12-31T11:12:59.985Z,77.60
2017-12-31T11:15:26.233Z,78.10
2017-12-31T11:17:53.199Z,78.00
2017-12-31T11:20:19.554Z,77.90
2017-12-31T11:22:45.798Z,78.10
2017-12-31T11:25:12.038Z,77.60
2017-12-31T11:27:38.305Z,77.90
2017-12-31T11:30:04.530Z,77.20
2017-12-31T11:32:33.033Z,78.30
2017-12-31T11:34:59.268Z,78.00
2017-12-31T11:37:25.489Z,78.00
2017-12-31T11:39:51.755Z,78.10
2017-12-31T11:42:17.992Z,78.10
2017-12-31T11:44:44.924Z,78.20
2017-12-31T11:47:11.174Z,77.90
2017-12-31T11:49:37.397Z,78.70
2017-12-31T11:52:08.674Z,78.60
2017-12-31T11:54:35.660Z,78.00
2017-12-31T11:57:01.878Z,78.00
2017-12-31T11:59:28.132Z,78.00
2017-12-31T12:01:54.338Z,78.00
2017-12-31T12:04:20.538Z,77.10
2017-12-31T12:06:46.787Z,77.30
2017-12-31T12:09:12.992Z,77.60
2017-12-31T12:11:43.697Z,77.10
2017-12-31T12:14:10.749Z,77.20
2017-12-31T12:16:37.039Z,77.30
2017-12-31T12:19:03.296Z,76.80
2017-12-31T12:21:29.503Z,77.20
2017-12-31T12:23:55.696Z,75.50
2017-12-31T12:26:21.885Z,75.90
2017-12-31T12:28:51.855Z,75.80
2017-12-31T12:31:19.938Z,76.30
2017-12-31T12:33:46.174Z,76.30
2017-12-31T12:36:12.374Z,76.00
2017-12-31T12:38:38.609Z,76.10
2017-12-31T12:41:05.637Z,77.50
2017-12-31T12:43:31.873Z,77.50
2017-12-31T12:45:58.846Z,77.00
2017-12-31T12:48:29.049Z,77.00
2017-12-31T12:50:55.241Z,77.80
2017-12-31T12:53:22.262Z,76.80
2017-12-31T12:55:48.495Z,76.70
2017-12-31T12:58:14.733Z,76.50
2017-12-31T13:00:40.938Z,75.70
2017-12-31T13:03:07.141Z,76.00
2017-12-31T13:05:33.351Z,76.00
2017-12-31T13:08:05.775Z,76.30
2017-12-31T13:10:32.027Z,75.10
2017-12-31T13:12:58.216Z,75.90
2017-12-31T13:15:24.657Z,74.70
2017-12-31T13:17:51.600Z,75.30
2017-12-31T13:20:17.865Z,75.20
2017-12-31T13:22:44.073Z,74.60
2017-12-31T13:25:14.150Z,75.00
2017-12-31T13:27:40.342Z,75.00
2017-12-31T13:30:06.596Z,75.00
2017-12-31T13:32:32.780Z,74.90
2017-12-31T13:34:59.020Z,75.00
2017-12-31T13:37:25.289Z,75.20
2017-12-31T13:39:52.356Z,75.80
2017-12-31T13:42:18.592Z,75.70
2017-12-31T13:44:48.612Z,74.90
2017-12-31T13:47:14.864Z,74.80
2017-12-31T13:49:41.849Z,74.20
2017-12-31T13:52:08.865Z,74.60
2017-12-31T13:54:35.088Z,74.50
2017-12-31T13:57:01.364Z,74.10
2017-12-31T13:59:27.624Z,73.60
2017-12-31T14:01:53.981Z,73.10
2017-12-31T14:04:25.060Z,72.90
2017-12-31T14:06:51.321Z,72.80
2017-12-31T14:09:17.568Z,72.90
2017-12-31T14:11:43.799Z,73.70
2017-12-31T14:14:10.148Z,73.30
2017-12-31T14:16:36.454Z,73.10
2017-12-31T14:19:02.697Z,72.90
2017-12-31T14:21:28.935Z,74.00
2017-12-31T14:23:57.040Z,73.00
2017-12-31T14:26:26.056Z,72.60
2017-12-31T14:28:52.298Z,72.50
2017-12-31T14:31:18.653Z,72.30
2017-12-31T14:33:44.897Z,72.20
2017-12-31T14:36:11.281Z,71.50
2017-12-31T14:38:38.324Z,70.90
2017-12-31T14:41:05.298Z,70.00
2017-12-31T14:43:34.682Z,70.10
2017-12-31T14:46:01.693Z,69.80
2017-12-31T14:48:27.946Z,69.80
2017-12-31T14:50:54.178Z,69.70
2017-12-31T14:53:21.176Z,69.20
2017-12-31T14:55:47.655Z,69.10
2017-12-31T14:58:13.873Z,68.60
2017-12-31T15:00:40.089Z,68.90
2017-12-31T15:03:09.474Z,69.60
2017-12-31T15:05:35.677Z,69.80
2017-12-31T15:08:01.898Z,70.10
2017-12-31T15:10:28.116Z,69.50
2017-12-31T15:12:54.409Z,70.50
2017-12-31T15:15:20.655Z,69.60
2017-12-31T15:17:46.924Z,71.10
2017-12-31T15:20:13.209Z,71.00
2017-12-31T15:22:41.110Z,70.00
2017-12-31T15:25:07.381Z,70.80
2017-12-31T15:27:33.663Z,71.20
2017-12-31T15:29:59.920Z,72.20
2017-12-31T15:32:26.161Z,72.10
2017-12-31T15:34:52.418Z,71.90
2017-12-31T15:37:18.673Z,71.90
2017-12-31T15:39:44.929Z,72.60
2017-12-31T15:42:16.309Z,71.80
2017-12-31T15:44:42.549Z,72.10
2017-12-31T15:47:09.574Z,73.10
2017-12-31T15:49:36.537Z,74.70
2017-12-31T15:52:02.837Z,74.70
2017-12-31T15:54:29.092Z,75.40
2017-12-31T15:56:55.357Z,78.00
2017-12-31T15:59:25.804Z,80.10
2017-12-31T16:01:52.030Z,80.30
2017-12-31T16:04:19.040Z,85.40
2017-12-31T16:06:45.337Z,85.40
2017-12-31T16:09:11.552Z,86.60
2017-12-31T16:11:37.811Z,88.00
2017-12-31T16:14:04.058Z,90.40
2017-12-31T16:16:33.649Z,90.70
2017-12-31T16:18:59.888Z,91.30
2017-12-31T16:21:26.105Z,91.80
2017-12-31T16:23:53.085Z,91.80
2017-12-31T16:26:19.313Z,91.80
2017-12-31T16:28:46.303Z,91.60
2017-12-31T16:31:16.976Z,91.60
2017-12-31T16:33:43.220Z,92.20
2017-12-31T16:36:09.430Z,91.80
2017-12-31T16:38:35.732Z,92.00
2017-12-31T16:41:01.958Z,92.30
2017-12-31T16:43:28.145Z,92.00
2017-12-31T16:45:55.114Z,91.70
2017-12-31T16:48:23.349Z,91.70
2017-12-31T16:50:49.577Z,91.90
2017-12-31T16:53:15.765Z,92.00
2017-12-31T16:55:42.014Z,92.40
2017-12-31T16:58:08.201Z,92.40
2017-12-31T17:00:34.454Z,92.40
2017-12-31T17:03:00.721Z,92.40
2017-12-31T17:05:27.665Z,92.20
2017-12-31T17:07:56.249Z,92.10
2017-12-31T17:10:23.843Z,92.40
2017-12-31T17:12:50.108Z,92.40
2017-12-31T17:15:16.304Z,92.40
2017-12-31T17:17:42.527Z,92.40
2017-12-31T17:20:08.798Z,92.80
2017-12-31T17:22:35.053Z,92.60
2017-12-31T17:25:04.765Z,93.30
2017-12-31T17:27:30.956Z,93.50
2017-12-31T17:29:57.165Z,93.70
2017-12-31T17:32:23.393Z,93.60
2017-12-31T17:34:49.637Z,93.90
2017-12-31T17:37:15.965Z,94.20
2017-12-31T17:39:42.217Z,94.10
2017-12-31T17:42:12.737Z,94.10
2017-12-31T17:44:38.942Z,94.00
2017-12-31T17:47:05.185Z,94.00
2017-12-31T17:49:31.450Z,94.50
2017-12-31T17:51:57.702Z,94.40
2017-12-31T17:54:23.896Z,94.40
2017-12-31T17:56:50.137Z,94.40
2017-12-31T17:59:16.437Z,94.00
2017-12-31T18:01:47.705Z,94.70
2017-12-31T18:04:14.680Z,94.40
2017-12-31T18:06:40.924Z,94.40
2017-12-31T18:09:07.884Z,94.90
2017-12-31T18:11:35.045Z,94.80
2017-12-31T18:14:02.050Z,95.20
2017-12-31T18:16:28.306Z,95.00
2017-12-31T18:18:57.225Z,94.30
2017-12-31T18:21:24.248Z,95.10
2017-12-31T18:23:50.497Z,95.20
2017-12-31T18:26:16.766Z,95.40
2017-12-31T18:28:42.992Z,95.70
2017-12-31T18:31:09.205Z,95.50
2017-12-31T18:33:36.144Z,95.50
2017-12-31T18:36:03.170Z,95.70
2017-12-31T18:38:33.113Z,95.70
2017-12-31T18:40:59.324Z,95.70
2017-12-31T18:43:25.562Z,95.80
2017-12-31T18:45:51.819Z,95.60
2017-12-31T18:48:18.038Z,95.50
2017-12-31T18:50:44.168Z,95.30
2017-12-31T18:53:10.486Z,95.50
2017-12-31T18:55:36.698Z,95.50
2017-12-31T19:00:34.212Z,95.60
2017-12-31T19:03:01.184Z,95.50
2017-12-31T19:05:27.404Z,95.50
2017-12-31T19:07:54.306Z,94.40
2017-12-31T19:10:20.546Z,94.40
2017-12-31T19:12:46.856Z,94.90
2017-12-31T19:15:13.093Z,94.60
2017-12-31T19:17:39.288Z,94.90
2017-12-31T19:20:05.491Z,94.70
2017-12-31T19:22:31.745Z,94.60
2017-12-31T19:24:57.954Z,94.50
2017-12-31T19:27:24.176Z,94.30
2017-12-31T19:29:50.407Z,94.40
2017-12-31T19:32:17.348Z,93.80
2017-12-31T19:34:43.584Z,93.80
2017-12-31T19:37:14.209Z,94.10
2017-12-31T19:39:41.169Z,93.10
2017-12-31T19:42:07.424Z,93.10
2017-12-31T19:44:33.647Z,92.20
2017-12-31T19:46:59.913Z,93.00
2017-12-31T19:49:26.169Z,92.40
2017-12-31T19:51:52.417Z,92.50
2017-12-31T19:54:18.632Z,92.30
2017-12-31T19:56:49.272Z,91.70
2017-12-31T19:59:15.546Z,91.20
2017-12-31T20:01:41.808Z,90.70
2017-12-31T20:04:08.061Z,90.70
2017-12-31T20:06:34.333Z,90.20
2017-12-31T20:09:00.577Z,91.70
2017-12-31T20:11:26.969Z,92.60
2017-12-31T20:13:57.922Z,93.30
2017-12-31T20:16:24.896Z,93.70
2017-12-31T20:18:51.177Z,93.90
2017-12-31T20:21:17.511Z,94.70
2017-12-31T20:23:43.796Z,95.10
2017-12-31T20:26:10.794Z,94.40
2017-12-31T20:28:37.842Z,94.50
2017-12-31T20:31:08.513Z,94.50
2017-12-31T20:33:34.857Z,94.30
2017-12-31T20:36:01.161Z,94.40
2017-12-31T20:38:27.401Z,94.40
2017-12-31T20:40:54.400Z,94.80
2017-12-31T20:43:21.401Z,95.00
2017-12-31T20:45:47.632Z,95.00
2017-12-31T20:48:13.825Z,94.80
2017-12-31T20:50:42.937Z,95.30
2017-12-31T20:53:09.145Z,95.70
2017-12-31T20:55:35.413Z,95.70
2017-12-31T20:58:01.675Z,95.70
2017-12-31T21:00:27.905Z,96.00
2017-12-31T21:02:54.108Z,96.00
2017-12-31T21:05:21.073Z,96.30
2017-12-31T21:07:52.213Z,96.30
2017-12-31T21:10:19.181Z,96.30
2017-12-31T21:12:46.154Z,95.70
2017-12-31T21:15:12.385Z,96.10
2017-12-31T21:17:38.671Z,95.70
2017-12-31T21:20:04.890Z,95.60
2017-12-31T21:22:31.125Z,95.80
2017-12-31T21:25:02.093Z,96.00
2017-12-31T21:27:28.337Z,95.30
2017-12-31T21:29:55.309Z,95.80
2017-12-31T21:32:21.538Z,95.70
2017-12-31T21:34:48.480Z,95.80
2017-12-31T21:37:14.685Z,95.80
2017-12-31T21:39:40.917Z,95.10
2017-12-31T21:42:10.567Z,95.40
2017-12-31T21:44:36.773Z,94.50
2017-12-31T21:47:03.029Z,95.20
2017-12-31T21:49:29.224Z,95.20
2017-12-31T21:51:56.193Z,94.70
2017-12-31T21:54:23.159Z,94.60
2017-12-31T21:56:49.344Z,94.30
2017-12-31T21:59:20.689Z,94.00
2017-12-31T22:01:47.648Z,93.80
2017-12-31T22:06:39.308Z,93.50
2017-12-31T22:09:05.481Z,94.00
2017-12-31T22:11:32.402Z,93.60
2017-12-31T22:13:59.401Z,93.40
2017-12-31T22:16:25.632Z,93.40
2017-12-31T22:18:51.933Z,93.40
2017-12-31T22:21:18.931Z,93.10
2017-12-31T22:23:45.157Z,93.10
2017-12-31T22:26:11.368Z,93.20
2017-12-31T22:28:37.608Z,92.30
2017-12-31T22:31:03.837Z,92.50
2017-12-31T22:33:30.106Z,92.20
2017-12-31T22:35:56.380Z,91.90
2017-12-31T22:38:22.661Z,91.50
2017-12-31T22:40:55.602Z,92.10
2017-12-31T22:43:21.867Z,91.50
2017-12-31T22:45:48.145Z,91.60
2017-12-31T22:48:14.414Z,91.60
2017-12-31T22:50:41.396Z,91.60
2017-12-31T22:53:08.366Z,91.60
2017-12-31T22:55:35.322Z,91.50
2017-12-31T22:58:01.693Z,91.50
2017-12-31T23:00:29.455Z,91.20
2017-12-31T23:02:55.684Z,90.90
2017-12-31T23:05:22.693Z,90.60
2017-12-31T23:07:48.989Z,90.60
2017-12-31T23:10:16.148Z,89.60
2017-12-31T23:12:42.449Z,89.40
2017-12-31T23:15:08.713Z,88.40
2017-12-31T23:17:34.986Z,89.10
2017-12-31T23:20:03.937Z,90.20
2017-12-31T23:22:30.176Z,90.70
2017-12-31T23:24:56.467Z,90.60
2017-12-31T23:27:22.789Z,90.00
2017-12-31T23:29:49.180Z,90.70
2017-12-31T23:32:15.449Z,90.20
2017-12-31T23:34:41.547Z,90.50
2017-12-31T23:39:39.540Z,91.10
2017-12-31T23:42:06.603Z,91.40
2017-12-31T23:44:32.836Z,91.40
2017-12-31T23:46:59.010Z,91.40
2017-12-31T23:49:25.229Z,91.30
2017-12-31T23:51:52.181Z,91.40
2017-12-31T23:56:49.421Z,91.40
2017-12-31T23:59:15.709Z,91.40
